DAAJ

Djanet Inedbirene Airport

Djanet, Algeria
METAR DAAJ 151900Z 15009KT 9999 BKN046 20/00 Q1020
Observed Flight Rules
Dec-15 @ 19:00 UTC (29 minutes ago) Visual Flight Rules
Wind Visibility Clouds
150° at 9 knots 10,000+ meters
  • Broken at 4,600' AGL
Temperatures Readings
Current 20°C / 68°F
Dewpoint 0°C / 32°F
Humidity 26%
Altimeter 30.12" Hg
Pressure 1020 hPa
Elevation 968
METAR DAAJ 151900Z 15009KT 9999 BKN046 20/00 Q1020
Observed Flight Rules
Dec-15 @ 19:00 UTC
(29 minutes ago)
VFR
Wind Visibility
150° at 9 knots 10,000+ meters
Clouds
  • Broken at 4,600' AGL
Temperature Dewpoint
20°C / 68°F 0°C / 32°F
Humidity Altimeter Pressure
26% 30.12" Hg 1020 hPa